Terminal Aerodrome Forecast
Issued by NWS

Home | Current Version | Previous Version | Text Only | Print | Product List | Glossary On
Versions: 1 2 3 4 5 6 7 8 9 10 11 12 13 14 15
000
FTUS43 KEAX 250520
TAFSTJ
TAF
KSTJ 250520Z 2506/2606 34008KT P6SM BKN100
     FM250900 35005KT P6SM VCSH BKN050
     FM251400 01007KT 5SM -RA BR OVC015
     FM252200 02006KT P6SM OVC025
     FM260000 34004KT P6SM BKN060=

USA.gov is the U.S. government's official web portal to all federal, state and local government web resources and services.